Aviation Digital Data Service (ADDS)

Output produced by TAFs form (0716 UTC 23 May 2015)
found at http://aviationweather.gov/adds/tafs/
 
KRIL 230529Z 2306/2406 16006KT P6SM VCSH SCT060 BKN100 
     TEMPO 2306/2307 VRB10G20KT -SHRA BKN060 
     FM230900 18008KT P6SM BKN120 
     FM231500 31008KT P6SM BKN120 
     FM231800 25007KT P6SM FEW060 BKN120 
     FM232100 25010KT P6SM VCSH BKN060 
     FM240300 15004KT P6SM VCSH SCT060 BKN120